sensor_id;sensor_type;location;lat;lon;timestamp;P1;durP1;ratioP1;P2;durP2;ratioP2
1957;SDS011;979;51.076;13.748;2023-11-21T03:22:37;15.30;;;14.90;;
1957;SDS011;979;51.076;13.748;2023-11-21T03:26:45;15.40;;;15.00;;
1957;SDS011;979;51.076;13.748;2023-11-21T03:31:01;15.40;;;15.00;;
1957;SDS011;979;51.076;13.748;2023-11-21T03:39:11;15.00;;;14.60;;
1957;SDS011;979;51.076;13.748;2023-11-21T03:45:47;14.87;;;14.47;;
1957;SDS011;979;51.076;13.748;2023-11-21T03:53:50;15.10;;;14.70;;
1957;SDS011;979;51.076;13.748;2023-11-21T03:57:25;14.63;;;14.30;;
1957;SDS011;979;51.076;13.748;2023-11-21T04:53:09;14.47;;;14.17;;
1957;SDS011;979;51.076;13.748;2023-11-21T04:56:53;15.50;;;15.10;;
1957;SDS011;979;51.076;13.748;2023-11-21T05:01:20;15.70;;;15.30;;
1957;SDS011;979;51.076;13.748;2023-11-21T05:04:12;14.67;;;14.37;;
1957;SDS011;979;51.076;13.748;2023-11-21T05:18:49;15.30;;;14.90;;
1957;SDS011;979;51.076;13.748;2023-11-21T05:22:05;15.43;;;15.03;;
1957;SDS011;979;51.076;13.748;2023-11-21T05:24:54;16.60;;;16.10;;
1957;SDS011;979;51.076;13.748;2023-11-21T05:27:57;16.50;;;16.00;;
1957;SDS011;979;51.076;13.748;2023-11-21T05:31:32;15.90;;;15.50;;
1957;SDS011;979;51.076;13.748;2023-11-21T05:34:55;16.07;;;15.67;;
1957;SDS011;979;51.076;13.748;2023-11-21T05:37:39;14.50;;;14.20;;
1957;SDS011;979;51.076;13.748;2023-11-21T05:40:30;14.60;;;14.30;;
1957;SDS011;979;51.076;13.748;2023-11-21T05:43:14;14.97;;;14.57;;
1957;SDS011;979;51.076;13.748;2023-11-21T05:46:04;15.00;;;14.60;;
1957;SDS011;979;51.076;13.748;2023-11-21T05:48:45;15.13;;;14.73;;
1957;SDS011;979;51.076;13.748;2023-11-21T05:51:36;14.47;;;14.17;;
1957;SDS011;979;51.076;13.748;2023-11-21T05:54:18;14.30;;;13.97;;
1957;SDS011;979;51.076;13.748;2023-11-21T05:58:03;13.37;;;13.07;;
1957;SDS011;979;51.076;13.748;2023-11-21T06:00:51;13.67;;;13.37;;
1957;SDS011;979;51.076;13.748;2023-11-21T06:03:33;14.60;;;14.30;;
1957;SDS011;979;51.076;13.748;2023-11-21T06:06:12;13.93;;;13.63;;
1957;SDS011;979;51.076;13.748;2023-11-21T06:08:48;14.50;;;14.20;;
1957;SDS011;979;51.076;13.748;2023-11-21T06:11:22;15.30;;;14.30;;
1957;SDS011;979;51.076;13.748;2023-11-21T06:14:00;14.33;;;14.03;;
1957;SDS011;979;51.076;13.748;2023-11-21T06:16:46;13.03;;;12.73;;
1957;SDS011;979;51.076;13.748;2023-11-21T06:19:35;13.80;;;13.50;;
1957;SDS011;979;51.076;13.748;2023-11-21T06:25:19;14.70;;;14.30;;
1957;SDS011;979;51.076;13.748;2023-11-21T06:27:59;14.60;;;14.27;;
1957;SDS011;979;51.076;13.748;2023-11-21T06:30:43;14.97;;;14.57;;
1957;SDS011;979;51.076;13.748;2023-11-21T06:33:31;15.20;;;14.80;;
1957;SDS011;979;51.076;13.748;2023-11-21T06:36:27;13.70;;;13.40;;
1957;SDS011;979;51.076;13.748;2023-11-21T06:39:25;15.70;;;15.30;;
1957;SDS011;979;51.076;13.748;2023-11-21T06:42:18;15.70;;;15.30;;
1957;SDS011;979;51.076;13.748;2023-11-21T06:44:55;15.20;;;14.80;;
1957;SDS011;979;51.076;13.748;2023-11-21T06:47:40;14.73;;;14.43;;
1957;SDS011;979;51.076;13.748;2023-11-21T06:50:34;15.20;;;14.80;;
1957;SDS011;979;51.076;13.748;2023-11-21T07:03:37;14.80;;;14.40;;
1957;SDS011;979;51.076;13.748;2023-11-21T07:09:20;19.93;;;19.33;;
1957;SDS011;979;51.076;13.748;2023-11-21T07:16:10;31.13;;;30.20;;
1957;SDS011;979;51.076;13.748;2023-11-21T07:58:53;20.20;;;19.60;;
1957;SDS011;979;51.076;13.748;2023-11-21T08:02:00;20.33;;;19.73;;
1957;SDS011;979;51.076;13.748;2023-11-21T08:04:54;27.90;;;27.03;;
1957;SDS011;979;51.076;13.748;2023-11-21T08:07:55;27.20;;;26.30;;
1957;SDS011;979;51.076;13.748;2023-11-21T08:10:41;28.30;;;27.40;;
1957;SDS011;979;51.076;13.748;2023-11-21T08:13:10;29.47;;;28.57;;
1957;SDS011;979;51.076;13.748;2023-11-21T08:15:44;31.90;;;30.90;;
1957;SDS011;979;51.076;13.748;2023-11-21T08:18:13;29.40;;;28.33;;
1957;SDS011;979;51.076;13.748;2023-11-21T08:20:43;23.43;;;22.50;;
1957;SDS011;979;51.076;13.748;2023-11-21T08:23:14;28.37;;;27.10;;
1957;SDS011;979;51.076;13.748;2023-11-21T08:25:43;32.40;;;31.00;;
1957;SDS011;979;51.076;13.748;2023-11-21T08:28:12;21.97;;;21.27;;
1957;SDS011;979;51.076;13.748;2023-11-21T08:30:42;19.50;;;18.90;;
1957;SDS011;979;51.076;13.748;2023-11-21T08:33:12;23.03;;;22.20;;
1957;SDS011;979;51.076;13.748;2023-11-21T08:35:41;15.67;;;15.27;;
1957;SDS011;979;51.076;13.748;2023-11-21T08:38:09;16.10;;;15.70;;
1957;SDS011;979;51.076;13.748;2023-11-21T08:40:40;18.03;;;17.53;;
1957;SDS011;979;51.076;13.748;2023-11-21T08:43:08;17.17;;;16.67;;
1957;SDS011;979;51.076;13.748;2023-11-21T08:45:41;19.13;;;18.60;;
1957;SDS011;979;51.076;13.748;2023-11-21T08:48:19;22.33;;;21.63;;
1957;SDS011;979;51.076;13.748;2023-11-21T08:51:05;17.97;;;17.47;;
1957;SDS011;979;51.076;13.748;2023-11-21T08:53:34;15.70;;;15.30;;
1957;SDS011;979;51.076;13.748;2023-11-21T08:56:02;23.83;;;23.13;;
1957;SDS011;979;51.076;13.748;2023-11-21T08:58:31;28.80;;;27.67;;
1957;SDS011;979;51.076;13.748;2023-11-21T09:00:59;15.30;;;14.90;;
1957;SDS011;979;51.076;13.748;2023-11-21T09:03:29;26.73;;;25.53;;
1957;SDS011;979;51.076;13.748;2023-11-21T09:05:58;26.53;;;25.60;;
1957;SDS011;979;51.076;13.748;2023-11-21T09:08:29;23.00;;;22.13;;
1957;SDS011;979;51.076;13.748;2023-11-21T09:10:57;14.27;;;13.87;;
1957;SDS011;979;51.076;13.748;2023-11-21T09:13:25;14.90;;;14.50;;
1957;SDS011;979;51.076;13.748;2023-11-21T09:15:54;15.77;;;15.37;;
1957;SDS011;979;51.076;13.748;2023-11-21T09:18:22;14.40;;;14.00;;
1957;SDS011;979;51.076;13.748;2023-11-21T09:20:52;14.40;;;14.00;;
1957;SDS011;979;51.076;13.748;2023-11-21T09:23:20;14.70;;;14.30;;
1957;SDS011;979;51.076;13.748;2023-11-21T09:25:49;14.43;;;14.03;;
1957;SDS011;979;51.076;13.748;2023-11-21T09:28:18;14.10;;;13.70;;
1957;SDS011;979;51.076;13.748;2023-11-21T09:30:46;14.10;;;13.70;;
1957;SDS011;979;51.076;13.748;2023-11-21T09:33:16;14.00;;;13.70;;
1957;SDS011;979;51.076;13.748;2023-11-21T09:36:16;14.40;;;14.00;;
1957;SDS011;979;51.076;13.748;2023-11-21T09:38:59;15.43;;;15.03;;
1957;SDS011;979;51.076;13.748;2023-11-21T09:41:52;15.03;;;14.63;;
1957;SDS011;979;51.076;13.748;2023-11-21T09:44:45;14.60;;;14.20;;
1957;SDS011;979;51.076;13.748;2023-11-21T09:47:29;14.50;;;14.10;;
1957;SDS011;979;51.076;13.748;2023-11-21T09:50:06;13.93;;;13.63;;
1957;SDS011;979;51.076;13.748;2023-11-21T09:52:43;14.70;;;14.30;;
1957;SDS011;979;51.076;13.748;2023-11-21T09:55:18;20.20;;;19.60;;
1957;SDS011;979;51.076;13.748;2023-11-21T09:57:49;15.40;;;15.00;;
1957;SDS011;979;51.076;13.748;2023-11-21T10:00:17;16.17;;;15.73;;
1957;SDS011;979;51.076;13.748;2023-11-21T10:02:49;16.87;;;16.37;;
1957;SDS011;979;51.076;13.748;2023-11-21T10:05:20;29.70;;;28.40;;
1957;SDS011;979;51.076;13.748;2023-11-21T10:07:53;15.00;;;14.60;;
1957;SDS011;979;51.076;13.748;2023-11-21T10:10:25;13.77;;;13.43;;
1957;SDS011;979;51.076;13.748;2023-11-21T10:12:56;13.87;;;13.57;;
1957;SDS011;979;51.076;13.748;2023-11-21T10:15:29;12.87;;;12.57;;
1957;SDS011;979;51.076;13.748;2023-11-21T10:18:04;13.83;;;13.50;;
1957;SDS011;979;51.076;13.748;2023-11-21T10:20:36;18.70;;;18.17;;
1957;SDS011;979;51.076;13.748;2023-11-21T10:23:06;12.20;;;11.90;;
1957;SDS011;979;51.076;13.748;2023-11-21T10:25:38;16.40;;;15.90;;
1957;SDS011;979;51.076;13.748;2023-11-21T10:28:06;13.50;;;13.00;;
1957;SDS011;979;51.076;13.748;2023-11-21T10:30:38;13.30;;;12.90;;
1957;SDS011;979;51.076;13.748;2023-11-21T10:33:07;13.37;;;12.63;;
1957;SDS011;979;51.076;13.748;2023-11-21T10:35:39;12.57;;;12.27;;
1957;SDS011;979;51.076;13.748;2023-11-21T10:38:16;12.40;;;12.10;;
1957;SDS011;979;51.076;13.748;2023-11-21T10:40:46;15.43;;;15.03;;
1957;SDS011;979;51.076;13.748;2023-11-21T10:43:21;14.87;;;14.47;;
1957;SDS011;979;51.076;13.748;2023-11-21T10:46:11;12.87;;;12.57;;
1957;SDS011;979;51.076;13.748;2023-11-21T10:48:53;22.27;;;21.20;;
1957;SDS011;979;51.076;13.748;2023-11-21T10:51:45;27.07;;;25.80;;
1957;SDS011;979;51.076;13.748;2023-11-21T10:54:35;14.00;;;13.50;;
1957;SDS011;979;51.076;13.748;2023-11-21T10:57:27;15.20;;;14.70;;
1957;SDS011;979;51.076;13.748;2023-11-21T11:00:11;16.77;;;16.27;;
1957;SDS011;979;51.076;13.748;2023-11-21T11:03:07;13.00;;;12.70;;
1957;SDS011;979;51.076;13.748;2023-11-21T11:05:52;15.17;;;14.70;;
1957;SDS011;979;51.076;13.748;2023-11-21T11:08:38;14.03;;;13.63;;
1957;SDS011;979;51.076;13.748;2023-11-21T11:11:32;12.93;;;12.63;;
1957;SDS011;979;51.076;13.748;2023-11-21T11:14:21;12.83;;;12.53;;
1957;SDS011;979;51.076;13.748;2023-11-21T11:17:20;13.67;;;13.37;;
1957;SDS011;979;51.076;13.748;2023-11-21T11:20:10;15.47;;;15.07;;
1957;SDS011;979;51.076;13.748;2023-11-21T11:23:17;14.80;;;14.30;;
1957;SDS011;979;51.076;13.748;2023-11-21T11:26:11;13.23;;;12.93;;
1957;SDS011;979;51.076;13.748;2023-11-21T11:29:08;33.40;;;32.17;;
1957;SDS011;979;51.076;13.748;2023-11-21T11:32:03;13.80;;;13.30;;
1957;SDS011;979;51.076;13.748;2023-11-21T11:34:54;13.90;;;13.50;;
1957;SDS011;979;51.076;13.748;2023-11-21T11:37:45;12.60;;;12.30;;
1957;SDS011;979;51.076;13.748;2023-11-21T11:40:19;13.23;;;12.93;;
1957;SDS011;979;51.076;13.748;2023-11-21T11:42:57;12.20;;;11.90;;
1957;SDS011;979;51.076;13.748;2023-11-21T11:48:55;14.47;;;14.07;;
1957;SDS011;979;51.076;13.748;2023-11-21T11:55:24;13.13;;;12.73;;
1957;SDS011;979;51.076;13.748;2023-11-21T11:58:12;11.80;;;11.50;;
1957;SDS011;979;51.076;13.748;2023-11-21T12:00:53;12.50;;;12.20;;
1957;SDS011;979;51.076;13.748;2023-11-21T12:03:44;13.10;;;12.80;;
1957;SDS011;979;51.076;13.748;2023-11-21T12:06:29;13.70;;;13.30;;
1957;SDS011;979;51.076;13.748;2023-11-21T12:09:21;16.97;;;16.40;;
1957;SDS011;979;51.076;13.748;2023-11-21T12:11:59;11.50;;;11.20;;
1957;SDS011;979;51.076;13.748;2023-11-21T12:14:50;11.90;;;11.60;;
1957;SDS011;979;51.076;13.748;2023-11-21T12:17:31;11.70;;;11.40;;
1957;SDS011;979;51.076;13.748;2023-11-21T12:20:19;11.60;;;11.30;;
1957;SDS011;979;51.076;13.748;2023-11-21T12:23:15;11.70;;;11.40;;
1957;SDS011;979;51.076;13.748;2023-11-21T12:26:11;11.00;;;10.80;;
1957;SDS011;979;51.076;13.748;2023-11-21T12:28:59;11.30;;;11.00;;
1957;SDS011;979;51.076;13.748;2023-11-21T12:32:00;11.60;;;11.30;;
1957;SDS011;979;51.076;13.748;2023-11-21T12:34:51;13.87;;;13.33;;
1957;SDS011;979;51.076;13.748;2023-11-21T12:37:51;11.50;;;11.20;;
1957;SDS011;979;51.076;13.748;2023-11-21T12:40:40;11.20;;;11.00;;
1957;SDS011;979;51.076;13.748;2023-11-21T12:43:28;11.80;;;11.50;;
1957;SDS011;979;51.076;13.748;2023-11-21T12:46:13;11.37;;;11.17;;
1957;SDS011;979;51.076;13.748;2023-11-21T12:49:16;11.90;;;11.60;;
1957;SDS011;979;51.076;13.748;2023-11-21T12:52:14;11.00;;;10.80;;
1957;SDS011;979;51.076;13.748;2023-11-21T12:54:56;12.53;;;12.10;;
1957;SDS011;979;51.076;13.748;2023-11-21T12:58:11;12.50;;;12.20;;
1957;SDS011;979;51.076;13.748;2023-11-21T13:01:35;13.20;;;12.90;;
1957;SDS011;979;51.076;13.748;2023-11-21T13:04:36;12.77;;;12.37;;
1957;SDS011;979;51.076;13.748;2023-11-21T13:07:06;12.00;;;11.70;;
1957;SDS011;979;51.076;13.748;2023-11-21T13:09:41;13.80;;;13.40;;
1957;SDS011;979;51.076;13.748;2023-11-21T13:12:10;11.80;;;11.50;;
1957;SDS011;979;51.076;13.748;2023-11-21T13:14:41;12.77;;;12.47;;
1957;SDS011;979;51.076;13.748;2023-11-21T13:17:12;10.90;;;10.70;;
1957;SDS011;979;51.076;13.748;2023-11-21T13:19:40;10.80;;;10.60;;
1957;SDS011;979;51.076;13.748;2023-11-21T13:22:08;11.70;;;11.40;;
1957;SDS011;979;51.076;13.748;2023-11-21T13:24:37;10.97;;;10.70;;
1957;SDS011;979;51.076;13.748;2023-11-21T13:27:06;14.90;;;14.30;;
1957;SDS011;979;51.076;13.748;2023-11-21T13:29:36;11.00;;;10.80;;
1957;SDS011;979;51.076;13.748;2023-11-21T13:32:06;11.53;;;11.23;;
1957;SDS011;979;51.076;13.748;2023-11-21T13:34:38;12.23;;;11.93;;
1957;SDS011;979;51.076;13.748;2023-11-21T13:37:11;12.30;;;12.00;;
1957;SDS011;979;51.076;13.748;2023-11-21T16:34:01;14.83;;;14.43;;
1957;SDS011;979;51.076;13.748;2023-11-21T17:17:43;15.47;;;15.07;;
1957;SDS011;979;51.076;13.748;2023-11-21T17:33:16;13.50;;;13.20;;
1957;SDS011;979;51.076;13.748;2023-11-21T18:06:10;13.63;;;13.33;;
1957;SDS011;979;51.076;13.748;2023-11-21T18:26:55;14.67;;;14.37;;
1957;SDS011;979;51.076;13.748;2023-11-21T23:35:33;14.37;;;14.00;;
1957;SDS011;979;51.076;13.748;2023-11-21T23:46:37;14.10;;;13.80;;
